Terminal Aerodrome Forecast
Issued by NWS Rapid City, SD

Home | Current Version | Previous Version | Graphics & Text | Print | Product List | Glossary On
Versions: 1 2 3 4 5 6 7 8 9 10 11 12 13 14 15 16 17 18
428
FTUS43 KUNR 181720
TAFRAP
TAF
KRAP 181720Z 1818/1918 34022G32KT P6SM SCT050
     FM182300 35015KT P6SM FEW050
     FM190100 VRB05KT P6SM SKC
     FM191400 16011KT P6SM SCT150=

USA.gov is the U.S. government's official web portal to all federal, state and local government web resources and services.